sensor_id;sensor_type;location;lat;lon;timestamp;P1;durP1;ratioP1;P2;durP2;ratioP2
75189;SDS011;69198;44.694;37.790;2023-08-30T00:00:52;7.78;;;2.08;;
75189;SDS011;69198;44.694;37.790;2023-08-30T00:01:53;9.45;;;1.90;;
75189;SDS011;69198;44.694;37.790;2023-08-30T00:02:54;8.00;;;2.17;;
75189;SDS011;69198;44.694;37.790;2023-08-30T00:03:55;8.90;;;2.47;;
75189;SDS011;69198;44.694;37.790;2023-08-30T00:04:59;8.00;;;2.05;;
75189;SDS011;69198;44.694;37.790;2023-08-30T00:06:04;15.75;;;2.10;;
75189;SDS011;69198;44.694;37.790;2023-08-30T00:07:06;7.70;;;2.10;;
75189;SDS011;69198;44.694;37.790;2023-08-30T00:08:07;5.65;;;1.70;;
75189;SDS011;69198;44.694;37.790;2023-08-30T00:09:08;8.35;;;2.42;;
75189;SDS011;69198;44.694;37.790;2023-08-30T00:10:09;9.95;;;2.15;;
75189;SDS011;69198;44.694;37.790;2023-08-30T00:11:11;8.32;;;2.10;;
75189;SDS011;69198;44.694;37.790;2023-08-30T00:12:12;9.02;;;1.92;;
75189;SDS011;69198;44.694;37.790;2023-08-30T00:13:13;10.63;;;2.47;;
75189;SDS011;69198;44.694;37.790;2023-08-30T00:14:14;5.95;;;1.60;;
75189;SDS011;69198;44.694;37.790;2023-08-30T00:15:15;7.47;;;2.07;;
75189;SDS011;69198;44.694;37.790;2023-08-30T00:16:16;6.90;;;1.55;;
75189;SDS011;69198;44.694;37.790;2023-08-30T00:17:17;5.63;;;1.70;;
75189;SDS011;69198;44.694;37.790;2023-08-30T00:18:20;7.63;;;2.22;;
75189;SDS011;69198;44.694;37.790;2023-08-30T00:19:21;7.70;;;2.05;;
75189;SDS011;69198;44.694;37.790;2023-08-30T00:20:22;8.00;;;1.83;;
75189;SDS011;69198;44.694;37.790;2023-08-30T00:21:23;6.65;;;2.08;;
75189;SDS011;69198;44.694;37.790;2023-08-30T00:22:24;6.55;;;1.65;;
75189;SDS011;69198;44.694;37.790;2023-08-30T00:23:27;8.10;;;2.17;;
75189;SDS011;69198;44.694;37.790;2023-08-30T00:24:28;9.17;;;2.10;;
75189;SDS011;69198;44.694;37.790;2023-08-30T00:25:29;8.23;;;1.92;;
75189;SDS011;69198;44.694;37.790;2023-08-30T00:26:30;9.52;;;2.15;;
75189;SDS011;69198;44.694;37.790;2023-08-30T00:27:31;6.18;;;1.88;;
75189;SDS011;69198;44.694;37.790;2023-08-30T00:28:32;9.85;;;1.58;;
75189;SDS011;69198;44.694;37.790;2023-08-30T00:29:35;7.20;;;1.80;;
75189;SDS011;69198;44.694;37.790;2023-08-30T00:30:36;6.13;;;1.60;;
75189;SDS011;69198;44.694;37.790;2023-08-30T00:31:38;6.43;;;1.35;;
75189;SDS011;69198;44.694;37.790;2023-08-30T00:32:39;8.53;;;2.13;;
75189;SDS011;69198;44.694;37.790;2023-08-30T00:33:40;9.63;;;2.00;;
75189;SDS011;69198;44.694;37.790;2023-08-30T00:34:41;9.82;;;1.90;;
75189;SDS011;69198;44.694;37.790;2023-08-30T00:35:42;6.88;;;1.65;;
75189;SDS011;69198;44.694;37.790;2023-08-30T00:36:44;8.18;;;1.80;;
75189;SDS011;69198;44.694;37.790;2023-08-30T00:37:45;7.55;;;1.67;;
75189;SDS011;69198;44.694;37.790;2023-08-30T00:38:46;8.07;;;2.42;;
75189;SDS011;69198;44.694;37.790;2023-08-30T00:39:47;6.33;;;1.80;;
75189;SDS011;69198;44.694;37.790;2023-08-30T00:40:48;7.30;;;1.80;;
75189;SDS011;69198;44.694;37.790;2023-08-30T00:41:49;7.13;;;1.60;;
75189;SDS011;69198;44.694;37.790;2023-08-30T00:42:50;7.05;;;2.17;;
75189;SDS011;69198;44.694;37.790;2023-08-30T00:43:52;7.68;;;1.52;;
75189;SDS011;69198;44.694;37.790;2023-08-30T00:44:53;9.18;;;2.00;;
75189;SDS011;69198;44.694;37.790;2023-08-30T00:45:54;5.95;;;1.50;;
75189;SDS011;69198;44.694;37.790;2023-08-30T00:46:56;9.65;;;2.00;;
75189;SDS011;69198;44.694;37.790;2023-08-30T00:47:57;8.70;;;2.40;;
75189;SDS011;69198;44.694;37.790;2023-08-30T00:48:59;6.82;;;1.85;;
75189;SDS011;69198;44.694;37.790;2023-08-30T00:50:00;5.82;;;1.45;;
75189;SDS011;69198;44.694;37.790;2023-08-30T00:51:02;6.50;;;1.63;;
75189;SDS011;69198;44.694;37.790;2023-08-30T00:52:04;8.02;;;1.70;;
75189;SDS011;69198;44.694;37.790;2023-08-30T00:53:08;8.65;;;1.98;;
75189;SDS011;69198;44.694;37.790;2023-08-30T00:54:09;8.10;;;1.70;;
75189;SDS011;69198;44.694;37.790;2023-08-30T00:55:10;10.10;;;1.90;;
75189;SDS011;69198;44.694;37.790;2023-08-30T00:56:11;6.78;;;1.55;;
75189;SDS011;69198;44.694;37.790;2023-08-30T00:57:12;7.90;;;1.90;;
75189;SDS011;69198;44.694;37.790;2023-08-30T00:58:14;6.35;;;1.55;;
75189;SDS011;69198;44.694;37.790;2023-08-30T00:59:15;6.15;;;1.52;;
75189;SDS011;69198;44.694;37.790;2023-08-30T01:00:16;6.55;;;1.60;;
75189;SDS011;69198;44.694;37.790;2023-08-30T01:01:17;8.98;;;1.60;;
75189;SDS011;69198;44.694;37.790;2023-08-30T01:02:18;6.35;;;1.80;;
75189;SDS011;69198;44.694;37.790;2023-08-30T01:03:20;6.00;;;1.38;;
75189;SDS011;69198;44.694;37.790;2023-08-30T01:04:22;7.38;;;2.00;;
75189;SDS011;69198;44.694;37.790;2023-08-30T01:05:23;6.07;;;2.20;;
75189;SDS011;69198;44.694;37.790;2023-08-30T01:06:24;7.65;;;1.67;;
75189;SDS011;69198;44.694;37.790;2023-08-30T01:07:26;6.03;;;1.70;;
75189;SDS011;69198;44.694;37.790;2023-08-30T01:08:28;6.65;;;1.92;;
75189;SDS011;69198;44.694;37.790;2023-08-30T01:09:29;8.70;;;1.40;;
75189;SDS011;69198;44.694;37.790;2023-08-30T01:13:14;7.38;;;1.60;;
75189;SDS011;69198;44.694;37.790;2023-08-30T01:14:26;9.57;;;1.90;;
75189;SDS011;69198;44.694;37.790;2023-08-30T01:15:35;8.80;;;2.45;;
75189;SDS011;69198;44.694;37.790;2023-08-30T01:16:38;6.90;;;1.70;;
75189;SDS011;69198;44.694;37.790;2023-08-30T01:17:40;7.47;;;1.83;;
75189;SDS011;69198;44.694;37.790;2023-08-30T01:18:44;9.10;;;2.00;;
75189;SDS011;69198;44.694;37.790;2023-08-30T01:20:56;9.27;;;2.25;;
75189;SDS011;69198;44.694;37.790;2023-08-30T01:23:26;7.95;;;1.75;;
75189;SDS011;69198;44.694;37.790;2023-08-30T01:26:13;5.63;;;1.90;;
75189;SDS011;69198;44.694;37.790;2023-08-30T01:27:25;6.90;;;1.60;;
75189;SDS011;69198;44.694;37.790;2023-08-30T01:28:28;7.43;;;1.67;;
75189;SDS011;69198;44.694;37.790;2023-08-30T01:29:32;11.70;;;2.00;;
75189;SDS011;69198;44.694;37.790;2023-08-30T01:30:34;7.80;;;1.85;;
75189;SDS011;69198;44.694;37.790;2023-08-30T01:31:38;6.53;;;1.65;;
75189;SDS011;69198;44.694;37.790;2023-08-30T01:32:40;7.82;;;2.05;;
75189;SDS011;69198;44.694;37.790;2023-08-30T01:33:43;18.17;;;2.20;;
75189;SDS011;69198;44.694;37.790;2023-08-30T01:34:46;6.60;;;1.90;;
75189;SDS011;69198;44.694;37.790;2023-08-30T01:35:49;7.97;;;1.73;;
75189;SDS011;69198;44.694;37.790;2023-08-30T01:36:50;8.50;;;2.10;;
75189;SDS011;69198;44.694;37.790;2023-08-30T01:37:52;7.28;;;1.70;;
75189;SDS011;69198;44.694;37.790;2023-08-30T01:38:54;7.90;;;1.70;;
75189;SDS011;69198;44.694;37.790;2023-08-30T01:39:56;6.77;;;1.60;;
75189;SDS011;69198;44.694;37.790;2023-08-30T01:40:58;10.90;;;2.40;;
75189;SDS011;69198;44.694;37.790;2023-08-30T01:42:00;11.23;;;2.00;;
75189;SDS011;69198;44.694;37.790;2023-08-30T01:43:02;6.35;;;1.80;;
75189;SDS011;69198;44.694;37.790;2023-08-30T01:44:06;7.35;;;1.67;;
75189;SDS011;69198;44.694;37.790;2023-08-30T01:45:08;6.38;;;1.80;;
75189;SDS011;69198;44.694;37.790;2023-08-30T01:46:14;6.00;;;1.80;;
75189;SDS011;69198;44.694;37.790;2023-08-30T01:47:19;9.38;;;2.05;;
75189;SDS011;69198;44.694;37.790;2023-08-30T01:48:21;12.73;;;2.35;;
75189;SDS011;69198;44.694;37.790;2023-08-30T01:49:24;7.95;;;2.05;;
75189;SDS011;69198;44.694;37.790;2023-08-30T01:50:26;9.43;;;2.40;;
75189;SDS011;69198;44.694;37.790;2023-08-30T01:51:28;11.50;;;2.28;;
75189;SDS011;69198;44.694;37.790;2023-08-30T01:52:29;7.30;;;1.92;;
75189;SDS011;69198;44.694;37.790;2023-08-30T01:53:32;11.73;;;2.10;;
75189;SDS011;69198;44.694;37.790;2023-08-30T01:54:33;9.38;;;2.30;;
75189;SDS011;69198;44.694;37.790;2023-08-30T01:55:35;8.50;;;1.85;;
75189;SDS011;69198;44.694;37.790;2023-08-30T01:56:37;7.35;;;1.90;;
75189;SDS011;69198;44.694;37.790;2023-08-30T01:57:38;10.05;;;2.00;;
75189;SDS011;69198;44.694;37.790;2023-08-30T01:58:39;10.27;;;1.92;;
75189;SDS011;69198;44.694;37.790;2023-08-30T01:59:40;9.73;;;2.40;;
75189;SDS011;69198;44.694;37.790;2023-08-30T02:00:41;7.55;;;1.95;;
75189;SDS011;69198;44.694;37.790;2023-08-30T02:01:42;7.03;;;1.90;;
75189;SDS011;69198;44.694;37.790;2023-08-30T02:02:43;7.13;;;1.85;;
75189;SDS011;69198;44.694;37.790;2023-08-30T02:03:44;8.45;;;1.92;;
75189;SDS011;69198;44.694;37.790;2023-08-30T02:04:46;7.43;;;2.38;;
75189;SDS011;69198;44.694;37.790;2023-08-30T02:07:00;9.15;;;2.03;;
75189;SDS011;69198;44.694;37.790;2023-08-30T02:08:05;8.65;;;2.40;;
75189;SDS011;69198;44.694;37.790;2023-08-30T02:09:14;10.20;;;2.10;;
75189;SDS011;69198;44.694;37.790;2023-08-30T02:10:23;9.48;;;2.00;;
75189;SDS011;69198;44.694;37.790;2023-08-30T02:11:35;11.23;;;2.20;;
75189;SDS011;69198;44.694;37.790;2023-08-30T02:12:47;8.68;;;2.30;;
75189;SDS011;69198;44.694;37.790;2023-08-30T02:13:48;9.75;;;2.38;;
75189;SDS011;69198;44.694;37.790;2023-08-30T02:14:53;9.15;;;2.78;;
75189;SDS011;69198;44.694;37.790;2023-08-30T02:15:56;7.28;;;2.30;;
75189;SDS011;69198;44.694;37.790;2023-08-30T02:17:00;7.47;;;2.17;;
75189;SDS011;69198;44.694;37.790;2023-08-30T02:18:03;7.22;;;2.10;;
75189;SDS011;69198;44.694;37.790;2023-08-30T02:19:05;7.18;;;2.30;;
75189;SDS011;69198;44.694;37.790;2023-08-30T02:20:08;8.75;;;1.80;;
75189;SDS011;69198;44.694;37.790;2023-08-30T02:21:10;7.50;;;2.25;;
75189;SDS011;69198;44.694;37.790;2023-08-30T02:22:11;7.28;;;2.70;;
75189;SDS011;69198;44.694;37.790;2023-08-30T02:23:12;7.53;;;2.30;;
75189;SDS011;69198;44.694;37.790;2023-08-30T02:24:13;9.95;;;2.17;;
75189;SDS011;69198;44.694;37.790;2023-08-30T02:25:14;8.73;;;2.40;;
75189;SDS011;69198;44.694;37.790;2023-08-30T02:26:17;10.60;;;2.40;;
75189;SDS011;69198;44.694;37.790;2023-08-30T02:27:20;9.73;;;2.25;;
75189;SDS011;69198;44.694;37.790;2023-08-30T02:28:21;12.90;;;1.98;;
75189;SDS011;69198;44.694;37.790;2023-08-30T02:29:22;7.95;;;2.25;;
75189;SDS011;69198;44.694;37.790;2023-08-30T02:30:23;9.77;;;2.97;;
75189;SDS011;69198;44.694;37.790;2023-08-30T02:31:24;9.18;;;2.20;;
75189;SDS011;69198;44.694;37.790;2023-08-30T02:32:26;7.95;;;2.78;;
75189;SDS011;69198;44.694;37.790;2023-08-30T02:33:27;8.18;;;2.42;;
75189;SDS011;69198;44.694;37.790;2023-08-30T02:34:28;7.90;;;2.10;;
75189;SDS011;69198;44.694;37.790;2023-08-30T02:35:29;9.68;;;2.10;;
75189;SDS011;69198;44.694;37.790;2023-08-30T02:36:31;12.88;;;2.40;;
75189;SDS011;69198;44.694;37.790;2023-08-30T02:37:32;8.65;;;2.45;;
75189;SDS011;69198;44.694;37.790;2023-08-30T02:38:33;9.23;;;2.20;;
75189;SDS011;69198;44.694;37.790;2023-08-30T02:39:34;9.45;;;2.17;;
75189;SDS011;69198;44.694;37.790;2023-08-30T02:40:35;7.85;;;2.33;;
75189;SDS011;69198;44.694;37.790;2023-08-30T02:41:36;9.77;;;2.03;;
75189;SDS011;69198;44.694;37.790;2023-08-30T02:42:37;7.43;;;2.17;;
75189;SDS011;69198;44.694;37.790;2023-08-30T02:43:38;7.68;;;2.20;;
75189;SDS011;69198;44.694;37.790;2023-08-30T02:44:39;8.23;;;2.47;;
75189;SDS011;69198;44.694;37.790;2023-08-30T02:45:42;9.60;;;2.40;;
75189;SDS011;69198;44.694;37.790;2023-08-30T02:46:43;7.53;;;2.28;;
75189;SDS011;69198;44.694;37.790;2023-08-30T02:47:44;9.18;;;2.40;;
75189;SDS011;69198;44.694;37.790;2023-08-30T02:48:46;8.77;;;2.50;;
75189;SDS011;69198;44.694;37.790;2023-08-30T02:49:47;8.27;;;2.37;;
75189;SDS011;69198;44.694;37.790;2023-08-30T02:50:48;7.38;;;2.70;;
75189;SDS011;69198;44.694;37.790;2023-08-30T02:51:48;9.93;;;2.58;;
75189;SDS011;69198;44.694;37.790;2023-08-30T02:52:50;8.32;;;2.50;;
75189;SDS011;69198;44.694;37.790;2023-08-30T02:53:51;7.45;;;2.53;;
75189;SDS011;69198;44.694;37.790;2023-08-30T02:54:52;9.45;;;2.53;;
75189;SDS011;69198;44.694;37.790;2023-08-30T02:55:53;12.90;;;2.63;;
75189;SDS011;69198;44.694;37.790;2023-08-30T02:56:56;7.77;;;2.57;;
75189;SDS011;69198;44.694;37.790;2023-08-30T02:57:57;8.05;;;2.42;;
75189;SDS011;69198;44.694;37.790;2023-08-30T02:58:58;8.00;;;2.58;;
75189;SDS011;69198;44.694;37.790;2023-08-30T02:59:59;9.02;;;2.38;;
75189;SDS011;69198;44.694;37.790;2023-08-30T03:01:00;8.93;;;2.22;;
75189;SDS011;69198;44.694;37.790;2023-08-30T03:02:03;12.63;;;2.47;;
75189;SDS011;69198;44.694;37.790;2023-08-30T03:03:04;7.65;;;2.10;;
75189;SDS011;69198;44.694;37.790;2023-08-30T03:04:05;9.70;;;2.55;;
75189;SDS011;69198;44.694;37.790;2023-08-30T03:05:06;10.27;;;2.40;;
75189;SDS011;69198;44.694;37.790;2023-08-30T03:06:08;8.73;;;2.10;;
75189;SDS011;69198;44.694;37.790;2023-08-30T03:07:09;7.13;;;2.03;;
75189;SDS011;69198;44.694;37.790;2023-08-30T03:08:10;10.25;;;2.60;;
75189;SDS011;69198;44.694;37.790;2023-08-30T03:09:11;12.15;;;2.70;;
75189;SDS011;69198;44.694;37.790;2023-08-30T03:10:12;9.05;;;2.58;;
75189;SDS011;69198;44.694;37.790;2023-08-30T03:11:13;7.50;;;2.50;;
75189;SDS011;69198;44.694;37.790;2023-08-30T03:12:25;10.77;;;2.40;;
75189;SDS011;69198;44.694;37.790;2023-08-30T03:13:26;7.18;;;2.40;;
75189;SDS011;69198;44.694;37.790;2023-08-30T03:14:27;9.48;;;2.30;;
75189;SDS011;69198;44.694;37.790;2023-08-30T03:15:32;8.57;;;2.77;;
75189;SDS011;69198;44.694;37.790;2023-08-30T03:16:34;7.20;;;2.70;;
75189;SDS011;69198;44.694;37.790;2023-08-30T03:17:35;8.50;;;2.75;;
75189;SDS011;69198;44.694;37.790;2023-08-30T03:18:38;7.15;;;2.45;;
75189;SDS011;69198;44.694;37.790;2023-08-30T03:19:39;8.93;;;2.50;;
75189;SDS011;69198;44.694;37.790;2023-08-30T03:20:43;9.52;;;2.45;;
75189;SDS011;69198;44.694;37.790;2023-08-30T03:21:44;10.27;;;2.90;;
75189;SDS011;69198;44.694;37.790;2023-08-30T03:22:45;6.88;;;2.50;;
75189;SDS011;69198;44.694;37.790;2023-08-30T03:23:46;10.32;;;2.60;;
75189;SDS011;69198;44.694;37.790;2023-08-30T03:24:47;8.33;;;2.60;;
75189;SDS011;69198;44.694;37.790;2023-08-30T03:25:49;6.93;;;2.38;;
75189;SDS011;69198;44.694;37.790;2023-08-30T03:26:50;10.73;;;2.80;;
75189;SDS011;69198;44.694;37.790;2023-08-30T03:27:53;11.60;;;3.00;;
75189;SDS011;69198;44.694;37.790;2023-08-30T03:28:54;9.65;;;2.78;;
75189;SDS011;69198;44.694;37.790;2023-08-30T03:29:56;8.20;;;2.95;;
75189;SDS011;69198;44.694;37.790;2023-08-30T03:30:57;9.55;;;2.90;;
75189;SDS011;69198;44.694;37.790;2023-08-30T03:31:59;6.88;;;2.25;;
75189;SDS011;69198;44.694;37.790;2023-08-30T03:33:00;9.85;;;2.70;;
75189;SDS011;69198;44.694;37.790;2023-08-30T03:34:01;8.73;;;3.20;;
75189;SDS011;69198;44.694;37.790;2023-08-30T03:35:03;8.25;;;2.60;;
75189;SDS011;69198;44.694;37.790;2023-08-30T03:36:10;9.00;;;2.50;;
75189;SDS011;69198;44.694;37.790;2023-08-30T03:37:13;7.70;;;2.60;;
75189;SDS011;69198;44.694;37.790;2023-08-30T03:38:15;11.30;;;3.03;;
75189;SDS011;69198;44.694;37.790;2023-08-30T03:39:18;6.82;;;2.78;;
75189;SDS011;69198;44.694;37.790;2023-08-30T03:40:22;9.35;;;3.30;;
75189;SDS011;69198;44.694;37.790;2023-08-30T03:41:22;8.23;;;2.80;;
75189;SDS011;69198;44.694;37.790;2023-08-30T03:42:23;8.73;;;2.83;;
75189;SDS011;69198;44.694;37.790;2023-08-30T03:43:24;7.67;;;2.87;;
75189;SDS011;69198;44.694;37.790;2023-08-30T03:44:25;8.48;;;3.08;;
75189;SDS011;69198;44.694;37.790;2023-08-30T03:45:26;9.82;;;2.88;;
75189;SDS011;69198;44.694;37.790;2023-08-30T03:46:27;8.15;;;3.00;;
75189;SDS011;69198;44.694;37.790;2023-08-30T03:47:28;8.40;;;3.00;;
75189;SDS011;69198;44.694;37.790;2023-08-30T03:48:29;11.17;;;3.10;;
75189;SDS011;69198;44.694;37.790;2023-08-30T03:49:31;8.98;;;2.67;;
75189;SDS011;69198;44.694;37.790;2023-08-30T03:50:32;9.30;;;2.95;;
75189;SDS011;69198;44.694;37.790;2023-08-30T03:51:34;8.88;;;2.58;;
75189;SDS011;69198;44.694;37.790;2023-08-30T03:52:35;10.00;;;3.10;;
75189;SDS011;69198;44.694;37.790;2023-08-30T03:53:36;8.35;;;3.00;;
75189;SDS011;69198;44.694;37.790;2023-08-30T03:54:38;9.45;;;3.33;;
75189;SDS011;69198;44.694;37.790;2023-08-30T03:55:40;8.63;;;3.00;;
75189;SDS011;69198;44.694;37.790;2023-08-30T03:56:41;8.77;;;3.00;;
75189;SDS011;69198;44.694;37.790;2023-08-30T03:57:42;7.47;;;2.95;;
75189;SDS011;69198;44.694;37.790;2023-08-30T03:58:44;9.50;;;3.40;;
75189;SDS011;69198;44.694;37.790;2023-08-30T03:59:45;8.65;;;3.10;;
75189;SDS011;69198;44.694;37.790;2023-08-30T04:00:47;8.40;;;3.20;;
75189;SDS011;69198;44.694;37.790;2023-08-30T04:01:48;9.95;;;3.50;;
75189;SDS011;69198;44.694;37.790;2023-08-30T04:02:50;10.80;;;3.25;;
75189;SDS011;69198;44.694;37.790;2023-08-30T04:03:51;11.23;;;3.20;;
75189;SDS011;69198;44.694;37.790;2023-08-30T04:04:51;9.53;;;3.37;;
75189;SDS011;69198;44.694;37.790;2023-08-30T04:05:55;11.95;;;3.38;;
75189;SDS011;69198;44.694;37.790;2023-08-30T04:06:59;9.20;;;3.03;;
75189;SDS011;69198;44.694;37.790;2023-08-30T04:08:02;7.95;;;3.22;;
75189;SDS011;69198;44.694;37.790;2023-08-30T04:09:06;11.77;;;3.17;;
75189;SDS011;69198;44.694;37.790;2023-08-30T04:10:07;11.32;;;3.22;;
75189;SDS011;69198;44.694;37.790;2023-08-30T04:11:08;10.15;;;2.50;;
75189;SDS011;69198;44.694;37.790;2023-08-30T04:12:09;9.13;;;3.17;;
75189;SDS011;69198;44.694;37.790;2023-08-30T04:13:10;8.60;;;2.73;;
75189;SDS011;69198;44.694;37.790;2023-08-30T04:14:11;8.57;;;2.80;;
75189;SDS011;69198;44.694;37.790;2023-08-30T04:15:12;10.38;;;3.15;;
75189;SDS011;69198;44.694;37.790;2023-08-30T04:16:14;8.68;;;3.03;;
75189;SDS011;69198;44.694;37.790;2023-08-30T04:17:15;15.15;;;3.78;;
75189;SDS011;69198;44.694;37.790;2023-08-30T04:18:16;9.35;;;3.05;;
75189;SDS011;69198;44.694;37.790;2023-08-30T04:19:18;8.50;;;2.90;;
75189;SDS011;69198;44.694;37.790;2023-08-30T04:20:19;7.03;;;2.90;;
75189;SDS011;69198;44.694;37.790;2023-08-30T04:21:20;10.57;;;2.72;;
75189;SDS011;69198;44.694;37.790;2023-08-30T04:22:21;13.50;;;3.00;;
75189;SDS011;69198;44.694;37.790;2023-08-30T04:23:22;10.57;;;2.80;;
75189;SDS011;69198;44.694;37.790;2023-08-30T04:24:24;8.18;;;3.00;;
75189;SDS011;69198;44.694;37.790;2023-08-30T04:25:25;12.10;;;3.00;;
75189;SDS011;69198;44.694;37.790;2023-08-30T04:26:26;7.38;;;2.63;;
75189;SDS011;69198;44.694;37.790;2023-08-30T04:27:27;8.70;;;3.13;;
75189;SDS011;69198;44.694;37.790;2023-08-30T04:28:28;8.68;;;3.05;;
75189;SDS011;69198;44.694;37.790;2023-08-30T04:29:29;6.00;;;2.85;;
75189;SDS011;69198;44.694;37.790;2023-08-30T04:30:30;8.13;;;3.00;;
75189;SDS011;69198;44.694;37.790;2023-08-30T04:31:31;7.68;;;2.40;;
75189;SDS011;69198;44.694;37.790;2023-08-30T04:32:36;7.28;;;2.60;;
75189;SDS011;69198;44.694;37.790;2023-08-30T04:33:37;6.90;;;2.88;;
75189;SDS011;69198;44.694;37.790;2023-08-30T04:34:38;11.68;;;2.53;;
75189;SDS011;69198;44.694;37.790;2023-08-30T04:35:40;7.10;;;2.60;;
75189;SDS011;69198;44.694;37.790;2023-08-30T04:36:41;9.40;;;2.88;;
75189;SDS011;69198;44.694;37.790;2023-08-30T04:37:43;7.15;;;2.88;;
75189;SDS011;69198;44.694;37.790;2023-08-30T04:38:44;6.40;;;2.72;;
75189;SDS011;69198;44.694;37.790;2023-08-30T04:39:48;10.60;;;3.00;;
75189;SDS011;69198;44.694;37.790;2023-08-30T04:40:49;8.18;;;3.00;;
75189;SDS011;69198;44.694;37.790;2023-08-30T04:41:50;9.35;;;3.00;;
75189;SDS011;69198;44.694;37.790;2023-08-30T04:42:52;8.13;;;3.13;;
75189;SDS011;69198;44.694;37.790;2023-08-30T04:43:53;6.88;;;2.80;;
75189;SDS011;69198;44.694;37.790;2023-08-30T04:44:54;10.18;;;3.40;;
75189;SDS011;69198;44.694;37.790;2023-08-30T04:45:57;6.50;;;2.85;;
75189;SDS011;69198;44.694;37.790;2023-08-30T04:46:58;9.05;;;2.65;;
75189;SDS011;69198;44.694;37.790;2023-08-30T04:47:59;7.75;;;3.03;;
75189;SDS011;69198;44.694;37.790;2023-08-30T04:49:01;7.67;;;2.70;;
75189;SDS011;69198;44.694;37.790;2023-08-30T04:50:02;7.82;;;2.90;;
75189;SDS011;69198;44.694;37.790;2023-08-30T04:51:05;6.95;;;2.92;;
75189;SDS011;69198;44.694;37.790;2023-08-30T04:52:07;10.35;;;2.83;;
75189;SDS011;69198;44.694;37.790;2023-08-30T04:53:09;9.95;;;3.28;;
75189;SDS011;69198;44.694;37.790;2023-08-30T04:54:11;9.05;;;2.85;;
75189;SDS011;69198;44.694;37.790;2023-08-30T04:55:13;7.40;;;2.50;;
75189;SDS011;69198;44.694;37.790;2023-08-30T04:56:15;8.52;;;2.90;;
75189;SDS011;69198;44.694;37.790;2023-08-30T04:57:18;8.30;;;2.58;;
75189;SDS011;69198;44.694;37.790;2023-08-30T04:58:19;9.13;;;3.07;;
75189;SDS011;69198;44.694;37.790;2023-08-30T04:59:20;8.98;;;2.42;;
75189;SDS011;69198;44.694;37.790;2023-08-30T05:00:22;7.05;;;2.53;;
75189;SDS011;69198;44.694;37.790;2023-08-30T05:01:25;9.50;;;2.90;;
75189;SDS011;69198;44.694;37.790;2023-08-30T05:02:30;11.35;;;3.20;;
75189;SDS011;69198;44.694;37.790;2023-08-30T05:03:37;8.55;;;3.10;;
75189;SDS011;69198;44.694;37.790;2023-08-30T05:04:37;8.20;;;3.05;;
75189;SDS011;69198;44.694;37.790;2023-08-30T05:05:40;9.20;;;2.97;;
75189;SDS011;69198;44.694;37.790;2023-08-30T05:06:44;10.98;;;2.92;;
75189;SDS011;69198;44.694;37.790;2023-08-30T05:07:45;7.80;;;2.90;;
75189;SDS011;69198;44.694;37.790;2023-08-30T05:08:47;9.00;;;3.30;;
75189;SDS011;69198;44.694;37.790;2023-08-30T05:09:48;10.13;;;3.10;;
75189;SDS011;69198;44.694;37.790;2023-08-30T05:10:49;8.13;;;2.65;;
75189;SDS011;69198;44.694;37.790;2023-08-30T05:11:51;7.38;;;3.08;;
75189;SDS011;69198;44.694;37.790;2023-08-30T05:12:53;7.90;;;2.88;;
75189;SDS011;69198;44.694;37.790;2023-08-30T05:13:54;10.95;;;2.88;;
75189;SDS011;69198;44.694;37.790;2023-08-30T05:14:55;9.60;;;2.70;;
75189;SDS011;69198;44.694;37.790;2023-08-30T05:15:59;8.40;;;2.93;;
75189;SDS011;69198;44.694;37.790;2023-08-30T05:17:00;10.77;;;3.00;;
75189;SDS011;69198;44.694;37.790;2023-08-30T05:18:01;7.22;;;3.20;;
75189;SDS011;69198;44.694;37.790;2023-08-30T05:19:02;8.60;;;3.22;;
75189;SDS011;69198;44.694;37.790;2023-08-30T05:20:04;11.73;;;3.20;;
75189;SDS011;69198;44.694;37.790;2023-08-30T05:21:05;9.52;;;2.92;;
75189;SDS011;69198;44.694;37.790;2023-08-30T05:22:06;13.45;;;3.20;;
75189;SDS011;69198;44.694;37.790;2023-08-30T05:23:09;11.20;;;3.75;;
75189;SDS011;69198;44.694;37.790;2023-08-30T05:24:11;7.03;;;3.42;;
75189;SDS011;69198;44.694;37.790;2023-08-30T05:25:12;11.05;;;2.90;;
75189;SDS011;69198;44.694;37.790;2023-08-30T05:26:13;9.00;;;3.10;;
75189;SDS011;69198;44.694;37.790;2023-08-30T05:27:17;8.95;;;2.90;;
75189;SDS011;69198;44.694;37.790;2023-08-30T05:28:19;7.78;;;2.95;;
75189;SDS011;69198;44.694;37.790;2023-08-30T05:29:20;7.95;;;3.15;;
75189;SDS011;69198;44.694;37.790;2023-08-30T05:30:20;9.38;;;2.63;;
75189;SDS011;69198;44.694;37.790;2023-08-30T05:31:25;7.07;;;2.80;;
75189;SDS011;69198;44.694;37.790;2023-08-30T05:32:53;8.98;;;2.83;;
75189;SDS011;69198;44.694;37.790;2023-08-30T05:34:17;9.85;;;3.00;;
75189;SDS011;69198;44.694;37.790;2023-08-30T05:35:36;6.88;;;2.92;;
75189;SDS011;69198;44.694;37.790;2023-08-30T05:36:40;7.05;;;2.80;;
75189;SDS011;69198;44.694;37.790;2023-08-30T05:37:57;8.93;;;2.80;;
75189;SDS011;69198;44.694;37.790;2023-08-30T05:39:24;10.02;;;3.30;;
75189;SDS011;69198;44.694;37.790;2023-08-30T05:40:30;8.30;;;2.85;;
75189;SDS011;69198;44.694;37.790;2023-08-30T05:41:31;8.45;;;3.08;;
75189;SDS011;69198;44.694;37.790;2023-08-30T05:42:32;12.65;;;3.60;;
75189;SDS011;69198;44.694;37.790;2023-08-30T05:43:33;8.32;;;3.20;;
75189;SDS011;69198;44.694;37.790;2023-08-30T05:44:34;7.50;;;2.83;;
75189;SDS011;69198;44.694;37.790;2023-08-30T05:45:35;8.77;;;3.42;;
75189;SDS011;69198;44.694;37.790;2023-08-30T05:46:37;8.07;;;3.22;;
75189;SDS011;69198;44.694;37.790;2023-08-30T05:47:38;8.57;;;3.03;;
75189;SDS011;69198;44.694;37.790;2023-08-30T05:48:40;7.55;;;2.97;;
75189;SDS011;69198;44.694;37.790;2023-08-30T05:49:41;10.48;;;3.22;;
75189;SDS011;69198;44.694;37.790;2023-08-30T05:50:42;7.50;;;3.10;;
75189;SDS011;69198;44.694;37.790;2023-08-30T05:51:43;8.77;;;3.35;;
75189;SDS011;69198;44.694;37.790;2023-08-30T05:52:44;9.98;;;3.10;;
75189;SDS011;69198;44.694;37.790;2023-08-30T05:53:45;9.38;;;3.10;;
75189;SDS011;69198;44.694;37.790;2023-08-30T05:54:46;10.25;;;3.28;;
75189;SDS011;69198;44.694;37.790;2023-08-30T05:55:47;10.53;;;2.87;;
75189;SDS011;69198;44.694;37.790;2023-08-30T05:56:48;9.63;;;4.27;;
75189;SDS011;69198;44.694;37.790;2023-08-30T05:57:50;10.68;;;2.92;;
75189;SDS011;69198;44.694;37.790;2023-08-30T05:58:51;10.70;;;3.22;;
75189;SDS011;69198;44.694;37.790;2023-08-30T05:59:52;8.10;;;3.20;;
75189;SDS011;69198;44.694;37.790;2023-08-30T06:00:53;10.30;;;2.88;;
75189;SDS011;69198;44.694;37.790;2023-08-30T06:01:54;13.93;;;4.05;;
75189;SDS011;69198;44.694;37.790;2023-08-30T06:02:55;11.13;;;3.10;;
75189;SDS011;69198;44.694;37.790;2023-08-30T06:03:56;10.70;;;3.28;;
75189;SDS011;69198;44.694;37.790;2023-08-30T06:04:57;13.40;;;3.07;;
75189;SDS011;69198;44.694;37.790;2023-08-30T06:05:58;10.90;;;3.55;;
75189;SDS011;69198;44.694;37.790;2023-08-30T06:06:59;11.20;;;3.50;;
75189;SDS011;69198;44.694;37.790;2023-08-30T06:08:00;9.70;;;3.28;;
75189;SDS011;69198;44.694;37.790;2023-08-30T06:09:01;9.93;;;3.00;;
75189;SDS011;69198;44.694;37.790;2023-08-30T06:10:02;12.10;;;3.25;;
75189;SDS011;69198;44.694;37.790;2023-08-30T06:11:04;9.50;;;3.60;;
75189;SDS011;69198;44.694;37.790;2023-08-30T06:12:06;11.57;;;3.43;;
75189;SDS011;69198;44.694;37.790;2023-08-30T06:13:07;9.30;;;3.37;;
75189;SDS011;69198;44.694;37.790;2023-08-30T06:14:08;9.80;;;3.53;;
75189;SDS011;69198;44.694;37.790;2023-08-30T06:15:09;8.27;;;3.38;;
75189;SDS011;69198;44.694;37.790;2023-08-30T06:16:10;10.10;;;3.20;;